sensor_id;sensor_type;location;lat;lon;timestamp;P1;durP1;ratioP1;P2;durP2;ratioP2
82304;SDS011;71914;47.382;8.168;2023-08-21T00:01:36;7.75;;;5.35;;
82304;SDS011;71914;47.382;8.168;2023-08-21T00:06:28;7.57;;;5.28;;
82304;SDS011;71914;47.382;8.168;2023-08-21T00:08:54;6.53;;;5.35;;
82304;SDS011;71914;47.382;8.168;2023-08-21T00:13:45;6.57;;;5.13;;
82304;SDS011;71914;47.382;8.168;2023-08-21T00:16:13;7.70;;;5.95;;
82304;SDS011;71914;47.382;8.168;2023-08-21T00:18:39;7.00;;;5.43;;
82304;SDS011;71914;47.382;8.168;2023-08-21T00:21:05;6.38;;;5.03;;
82304;SDS011;71914;47.382;8.168;2023-08-21T00:23:32;7.03;;;5.82;;
82304;SDS011;71914;47.382;8.168;2023-08-21T00:25:57;7.97;;;5.82;;
82304;SDS011;71914;47.382;8.168;2023-08-21T00:28:23;10.27;;;6.70;;
82304;SDS011;71914;47.382;8.168;2023-08-21T00:33:14;16.42;;;6.78;;
82304;SDS011;71914;47.382;8.168;2023-08-21T00:35:39;7.88;;;6.22;;
82304;SDS011;71914;47.382;8.168;2023-08-21T00:38:05;8.70;;;5.93;;
82304;SDS011;71914;47.382;8.168;2023-08-21T00:40:32;8.50;;;6.97;;
82304;SDS011;71914;47.382;8.168;2023-08-21T00:42:57;8.02;;;6.40;;
82304;SDS011;71914;47.382;8.168;2023-08-21T00:45:23;7.18;;;6.22;;
82304;SDS011;71914;47.382;8.168;2023-08-21T00:47:49;10.23;;;7.13;;
82304;SDS011;71914;47.382;8.168;2023-08-21T00:50:14;8.40;;;6.53;;
82304;SDS011;71914;47.382;8.168;2023-08-21T00:52:40;8.50;;;5.82;;
82304;SDS011;71914;47.382;8.168;2023-08-21T00:55:13;9.15;;;6.78;;
82304;SDS011;71914;47.382;8.168;2023-08-21T00:57:41;9.38;;;6.05;;
82304;SDS011;71914;47.382;8.168;2023-08-21T01:00:07;8.50;;;6.10;;
82304;SDS011;71914;47.382;8.168;2023-08-21T01:02:37;11.55;;;6.10;;
82304;SDS011;71914;47.382;8.168;2023-08-21T01:05:03;8.18;;;7.13;;
82304;SDS011;71914;47.382;8.168;2023-08-21T01:07:30;8.80;;;6.32;;
82304;SDS011;71914;47.382;8.168;2023-08-21T01:09:58;9.02;;;6.32;;
82304;SDS011;71914;47.382;8.168;2023-08-21T01:12:29;8.45;;;6.10;;
82304;SDS011;71914;47.382;8.168;2023-08-21T01:15:00;8.73;;;6.50;;
82304;SDS011;71914;47.382;8.168;2023-08-21T01:17:29;6.90;;;6.20;;
82304;SDS011;71914;47.382;8.168;2023-08-21T01:19:55;10.52;;;6.40;;
82304;SDS011;71914;47.382;8.168;2023-08-21T01:22:24;6.97;;;6.00;;
82304;SDS011;71914;47.382;8.168;2023-08-21T01:24:52;8.60;;;7.18;;
82304;SDS011;71914;47.382;8.168;2023-08-21T01:27:18;7.30;;;6.20;;
82304;SDS011;71914;47.382;8.168;2023-08-21T01:29:46;8.18;;;6.22;;
82304;SDS011;71914;47.382;8.168;2023-08-21T01:32:13;8.35;;;5.90;;
82304;SDS011;71914;47.382;8.168;2023-08-21T01:34:46;8.32;;;6.70;;
82304;SDS011;71914;47.382;8.168;2023-08-21T01:37:14;8.23;;;6.00;;
82304;SDS011;71914;47.382;8.168;2023-08-21T01:39:42;12.32;;;6.88;;
82304;SDS011;71914;47.382;8.168;2023-08-21T01:42:12;8.45;;;6.88;;
82304;SDS011;71914;47.382;8.168;2023-08-21T01:44:37;8.60;;;6.53;;
82304;SDS011;71914;47.382;8.168;2023-08-21T01:47:03;8.35;;;5.60;;
82304;SDS011;71914;47.382;8.168;2023-08-21T01:49:29;7.65;;;6.03;;
82304;SDS011;71914;47.382;8.168;2023-08-21T01:51:55;7.63;;;6.20;;
82304;SDS011;71914;47.382;8.168;2023-08-21T01:54:20;9.95;;;6.93;;
82304;SDS011;71914;47.382;8.168;2023-08-21T01:56:46;7.38;;;6.38;;
82304;SDS011;71914;47.382;8.168;2023-08-21T01:59:12;9.57;;;6.93;;
82304;SDS011;71914;47.382;8.168;2023-08-21T02:01:38;8.70;;;6.80;;
82304;SDS011;71914;47.382;8.168;2023-08-21T02:04:06;8.27;;;7.25;;
82304;SDS011;71914;47.382;8.168;2023-08-21T02:06:32;10.73;;;7.22;;
82304;SDS011;71914;47.382;8.168;2023-08-21T02:08:58;6.82;;;6.10;;
82304;SDS011;71914;47.382;8.168;2023-08-21T02:11:23;10.85;;;6.40;;
82304;SDS011;71914;47.382;8.168;2023-08-21T02:13:48;12.18;;;7.45;;
82304;SDS011;71914;47.382;8.168;2023-08-21T02:16:15;8.15;;;6.82;;
82304;SDS011;71914;47.382;8.168;2023-08-21T02:18:41;9.15;;;7.55;;
82304;SDS011;71914;47.382;8.168;2023-08-21T02:21:06;8.55;;;7.28;;
82304;SDS011;71914;47.382;8.168;2023-08-21T02:23:32;12.18;;;7.07;;
82304;SDS011;71914;47.382;8.168;2023-08-21T02:25:58;8.23;;;7.43;;
82304;SDS011;71914;47.382;8.168;2023-08-21T02:28:23;7.60;;;6.72;;
82304;SDS011;71914;47.382;8.168;2023-08-21T02:30:49;8.43;;;7.03;;
82304;SDS011;71914;47.382;8.168;2023-08-21T02:33:16;8.27;;;6.15;;
82304;SDS011;71914;47.382;8.168;2023-08-21T02:35:41;8.55;;;6.95;;
82304;SDS011;71914;47.382;8.168;2023-08-21T02:38:07;8.73;;;7.30;;
82304;SDS011;71914;47.382;8.168;2023-08-21T02:40:33;10.23;;;7.13;;
82304;SDS011;71914;47.382;8.168;2023-08-21T02:42:58;8.82;;;7.90;;
82304;SDS011;71914;47.382;8.168;2023-08-21T02:45:27;7.32;;;6.50;;
82304;SDS011;71914;47.382;8.168;2023-08-21T02:47:52;7.72;;;6.32;;
82304;SDS011;71914;47.382;8.168;2023-08-21T02:50:19;9.15;;;6.80;;
82304;SDS011;71914;47.382;8.168;2023-08-21T02:52:45;7.38;;;6.53;;
82304;SDS011;71914;47.382;8.168;2023-08-21T02:55:11;8.88;;;6.97;;
82304;SDS011;71914;47.382;8.168;2023-08-21T02:57:36;8.70;;;6.70;;
82304;SDS011;71914;47.382;8.168;2023-08-21T03:00:02;9.40;;;7.20;;
82304;SDS011;71914;47.382;8.168;2023-08-21T03:02:28;8.75;;;6.57;;
82304;SDS011;71914;47.382;8.168;2023-08-21T03:04:53;9.18;;;6.38;;
82304;SDS011;71914;47.382;8.168;2023-08-21T03:07:20;8.05;;;7.03;;
82304;SDS011;71914;47.382;8.168;2023-08-21T03:09:46;12.80;;;7.40;;
82304;SDS011;71914;47.382;8.168;2023-08-21T03:12:13;9.80;;;6.20;;
82304;SDS011;71914;47.382;8.168;2023-08-21T03:14:38;10.57;;;7.20;;
82304;SDS011;71914;47.382;8.168;2023-08-21T03:17:04;7.32;;;6.03;;
82304;SDS011;71914;47.382;8.168;2023-08-21T03:19:29;8.48;;;6.80;;
82304;SDS011;71914;47.382;8.168;2023-08-21T03:21:55;7.50;;;6.30;;
82304;SDS011;71914;47.382;8.168;2023-08-21T03:24:23;8.07;;;6.18;;
82304;SDS011;71914;47.382;8.168;2023-08-21T03:26:49;10.05;;;7.18;;
82304;SDS011;71914;47.382;8.168;2023-08-21T03:29:15;8.25;;;7.32;;
82304;SDS011;71914;47.382;8.168;2023-08-21T03:31:40;10.07;;;7.15;;
82304;SDS011;71914;47.382;8.168;2023-08-21T03:34:06;8.13;;;6.60;;
82304;SDS011;71914;47.382;8.168;2023-08-21T03:36:31;8.40;;;6.57;;
82304;SDS011;71914;47.382;8.168;2023-08-21T03:38:57;8.70;;;6.63;;
82304;SDS011;71914;47.382;8.168;2023-08-21T03:41:24;11.30;;;8.70;;
82304;SDS011;71914;47.382;8.168;2023-08-21T03:43:49;8.35;;;6.43;;
82304;SDS011;71914;47.382;8.168;2023-08-21T03:46:15;10.20;;;7.93;;
82304;SDS011;71914;47.382;8.168;2023-08-21T03:48:41;8.05;;;6.93;;
82304;SDS011;71914;47.382;8.168;2023-08-21T03:51:06;9.38;;;6.70;;
82304;SDS011;71914;47.382;8.168;2023-08-21T03:53:32;9.40;;;6.88;;
82304;SDS011;71914;47.382;8.168;2023-08-21T03:55:58;10.02;;;6.38;;
82304;SDS011;71914;47.382;8.168;2023-08-21T03:58:25;9.38;;;7.38;;
82304;SDS011;71914;47.382;8.168;2023-08-21T04:00:51;10.07;;;8.07;;
82304;SDS011;71914;47.382;8.168;2023-08-21T04:03:20;9.45;;;7.82;;
82304;SDS011;71914;47.382;8.168;2023-08-21T04:05:46;8.65;;;6.80;;
82304;SDS011;71914;47.382;8.168;2023-08-21T04:08:12;9.57;;;7.00;;
82304;SDS011;71914;47.382;8.168;2023-08-21T04:10:37;8.25;;;6.75;;
82304;SDS011;71914;47.382;8.168;2023-08-21T04:13:07;9.93;;;7.25;;
82304;SDS011;71914;47.382;8.168;2023-08-21T04:15:34;8.57;;;7.25;;
82304;SDS011;71914;47.382;8.168;2023-08-21T04:18:02;9.10;;;7.20;;
82304;SDS011;71914;47.382;8.168;2023-08-21T04:20:28;9.82;;;7.03;;
82304;SDS011;71914;47.382;8.168;2023-08-21T04:22:54;9.75;;;7.03;;
82304;SDS011;71914;47.382;8.168;2023-08-21T04:25:20;8.38;;;6.63;;
82304;SDS011;71914;47.382;8.168;2023-08-21T04:27:45;9.00;;;6.85;;
82304;SDS011;71914;47.382;8.168;2023-08-21T04:30:11;8.60;;;6.78;;
82304;SDS011;71914;47.382;8.168;2023-08-21T04:32:41;12.23;;;7.40;;
82304;SDS011;71914;47.382;8.168;2023-08-21T04:35:07;13.23;;;8.43;;
82304;SDS011;71914;47.382;8.168;2023-08-21T04:37:33;16.35;;;7.57;;
82304;SDS011;71914;47.382;8.168;2023-08-21T04:39:59;12.82;;;6.32;;
82304;SDS011;71914;47.382;8.168;2023-08-21T04:42:27;11.70;;;6.30;;
82304;SDS011;71914;47.382;8.168;2023-08-21T04:44:53;10.68;;;6.75;;
82304;SDS011;71914;47.382;8.168;2023-08-21T04:47:19;8.85;;;6.38;;
82304;SDS011;71914;47.382;8.168;2023-08-21T04:49:47;6.50;;;5.85;;
82304;SDS011;71914;47.382;8.168;2023-08-21T04:52:13;10.60;;;6.43;;
82304;SDS011;71914;47.382;8.168;2023-08-21T04:54:38;12.93;;;8.35;;
82304;SDS011;71914;47.382;8.168;2023-08-21T04:57:04;10.98;;;7.75;;
82304;SDS011;71914;47.382;8.168;2023-08-21T04:59:29;11.80;;;7.82;;
82304;SDS011;71914;47.382;8.168;2023-08-21T05:01:55;8.35;;;6.88;;
82304;SDS011;71914;47.382;8.168;2023-08-21T05:04:20;8.13;;;7.05;;
82304;SDS011;71914;47.382;8.168;2023-08-21T05:06:47;8.90;;;6.10;;
82304;SDS011;71914;47.382;8.168;2023-08-21T05:09:13;13.93;;;7.43;;
82304;SDS011;71914;47.382;8.168;2023-08-21T05:11:38;12.95;;;7.55;;
82304;SDS011;71914;47.382;8.168;2023-08-21T05:14:04;12.25;;;8.00;;
82304;SDS011;71914;47.382;8.168;2023-08-21T05:16:29;11.15;;;7.82;;
82304;SDS011;71914;47.382;8.168;2023-08-21T05:18:55;10.60;;;7.05;;
82304;SDS011;71914;47.382;8.168;2023-08-21T05:21:20;8.90;;;7.90;;
82304;SDS011;71914;47.382;8.168;2023-08-21T05:23:47;11.57;;;7.15;;
82304;SDS011;71914;47.382;8.168;2023-08-21T05:26:13;10.90;;;7.60;;
82304;SDS011;71914;47.382;8.168;2023-08-21T05:28:38;11.50;;;7.95;;
82304;SDS011;71914;47.382;8.168;2023-08-21T05:31:04;10.32;;;8.30;;
82304;SDS011;71914;47.382;8.168;2023-08-21T05:33:29;14.57;;;8.40;;
82304;SDS011;71914;47.382;8.168;2023-08-21T05:35:56;9.45;;;8.00;;
82304;SDS011;71914;47.382;8.168;2023-08-21T05:38:21;11.68;;;9.18;;
82304;SDS011;71914;47.382;8.168;2023-08-21T05:40:49;14.45;;;9.85;;
82304;SDS011;71914;47.382;8.168;2023-08-21T05:43:15;14.45;;;10.10;;
82304;SDS011;71914;47.382;8.168;2023-08-21T05:45:41;11.27;;;9.70;;
82304;SDS011;71914;47.382;8.168;2023-08-21T05:48:07;12.98;;;8.43;;
82304;SDS011;71914;47.382;8.168;2023-08-21T05:50:32;14.90;;;9.05;;
82304;SDS011;71914;47.382;8.168;2023-08-21T05:52:58;20.27;;;9.20;;
82304;SDS011;71914;47.382;8.168;2023-08-21T05:55:26;15.35;;;8.50;;
82304;SDS011;71914;47.382;8.168;2023-08-21T05:57:53;14.07;;;10.10;;
82304;SDS011;71914;47.382;8.168;2023-08-21T06:00:19;10.77;;;8.55;;
82304;SDS011;71914;47.382;8.168;2023-08-21T06:02:44;10.95;;;9.20;;
82304;SDS011;71914;47.382;8.168;2023-08-21T06:05:10;10.32;;;8.30;;
82304;SDS011;71914;47.382;8.168;2023-08-21T06:07:35;14.48;;;10.00;;
82304;SDS011;71914;47.382;8.168;2023-08-21T06:10:01;9.27;;;7.38;;
82304;SDS011;71914;47.382;8.168;2023-08-21T06:12:26;12.43;;;7.22;;
82304;SDS011;71914;47.382;8.168;2023-08-21T06:14:53;12.05;;;8.40;;
82304;SDS011;71914;47.382;8.168;2023-08-21T06:17:19;14.13;;;9.10;;
82304;SDS011;71914;47.382;8.168;2023-08-21T06:19:44;11.63;;;8.32;;
82304;SDS011;71914;47.382;8.168;2023-08-21T06:22:10;13.48;;;8.05;;
82304;SDS011;71914;47.382;8.168;2023-08-21T06:24:36;12.10;;;8.40;;
82304;SDS011;71914;47.382;8.168;2023-08-21T06:27:01;10.60;;;8.48;;
82304;SDS011;71914;47.382;8.168;2023-08-21T06:29:27;9.75;;;8.75;;
82304;SDS011;71914;47.382;8.168;2023-08-21T06:31:54;10.05;;;8.93;;
82304;SDS011;71914;47.382;8.168;2023-08-21T06:34:19;8.63;;;6.68;;
82304;SDS011;71914;47.382;8.168;2023-08-21T06:36:45;9.55;;;8.07;;
82304;SDS011;71914;47.382;8.168;2023-08-21T06:39:10;10.90;;;8.60;;
82304;SDS011;71914;47.382;8.168;2023-08-21T06:41:36;8.13;;;7.32;;
82304;SDS011;71914;47.382;8.168;2023-08-21T06:44:02;10.88;;;8.27;;
82304;SDS011;71914;47.382;8.168;2023-08-21T06:48:54;12.40;;;8.55;;
82304;SDS011;71914;47.382;8.168;2023-08-21T06:51:19;12.50;;;8.50;;
82304;SDS011;71914;47.382;8.168;2023-08-21T06:56:11;9.90;;;8.02;;
82304;SDS011;71914;47.382;8.168;2023-08-21T07:01:02;11.77;;;8.50;;
82304;SDS011;71914;47.382;8.168;2023-08-21T07:05:55;12.52;;;8.15;;
82304;SDS011;71914;47.382;8.168;2023-08-21T07:08:21;11.27;;;7.22;;
82304;SDS011;71914;47.382;8.168;2023-08-21T07:13:12;11.55;;;8.40;;
82304;SDS011;71914;47.382;8.168;2023-08-21T07:18:03;9.85;;;7.80;;
82304;SDS011;71914;47.382;8.168;2023-08-21T07:22:56;11.88;;;7.78;;
82304;SDS011;71914;47.382;8.168;2023-08-21T07:25:21;8.55;;;7.65;;
82304;SDS011;71914;47.382;8.168;2023-08-21T07:30:12;17.25;;;8.43;;
82304;SDS011;71914;47.382;8.168;2023-08-21T07:35:04;8.98;;;7.03;;
82304;SDS011;71914;47.382;8.168;2023-08-21T07:37:30;15.32;;;10.18;;
82304;SDS011;71914;47.382;8.168;2023-08-21T07:42:22;9.82;;;8.63;;
82304;SDS011;71914;47.382;8.168;2023-08-21T07:47:13;9.98;;;8.23;;
82304;SDS011;71914;47.382;8.168;2023-08-21T07:52:04;13.57;;;8.85;;
82304;SDS011;71914;47.382;8.168;2023-08-21T07:56:59;10.75;;;8.35;;
82304;SDS011;71914;47.382;8.168;2023-08-21T07:59:25;16.90;;;9.68;;
82304;SDS011;71914;47.382;8.168;2023-08-21T08:04:16;12.15;;;8.68;;
82304;SDS011;71914;47.382;8.168;2023-08-21T08:09:10;12.00;;;8.63;;
82304;SDS011;71914;47.382;8.168;2023-08-21T08:14:02;12.52;;;8.57;;
82304;SDS011;71914;47.382;8.168;2023-08-21T08:16:28;9.48;;;8.02;;
82304;SDS011;71914;47.382;8.168;2023-08-21T08:21:19;9.88;;;7.70;;
82304;SDS011;71914;47.382;8.168;2023-08-21T08:26:10;9.40;;;8.05;;
82304;SDS011;71914;47.382;8.168;2023-08-21T08:28:35;11.18;;;8.95;;
82304;SDS011;71914;47.382;8.168;2023-08-21T08:31:02;9.98;;;7.82;;
82304;SDS011;71914;47.382;8.168;2023-08-21T08:33:28;9.05;;;8.15;;
82304;SDS011;71914;47.382;8.168;2023-08-21T08:35:54;10.60;;;7.78;;
82304;SDS011;71914;47.382;8.168;2023-08-21T08:38:19;11.38;;;7.85;;
82304;SDS011;71914;47.382;8.168;2023-08-21T08:40:45;10.27;;;8.30;;
82304;SDS011;71914;47.382;8.168;2023-08-21T08:43:11;14.13;;;9.20;;
82304;SDS011;71914;47.382;8.168;2023-08-21T08:45:37;10.65;;;8.02;;
82304;SDS011;71914;47.382;8.168;2023-08-21T08:48:05;12.48;;;7.80;;
82304;SDS011;71914;47.382;8.168;2023-08-21T08:50:31;12.98;;;8.65;;
82304;SDS011;71914;47.382;8.168;2023-08-21T08:52:58;11.18;;;7.25;;
82304;SDS011;71914;47.382;8.168;2023-08-21T08:55:24;14.60;;;7.78;;
82304;SDS011;71914;47.382;8.168;2023-08-21T08:57:51;10.73;;;8.38;;
82304;SDS011;71914;47.382;8.168;2023-08-21T09:00:16;12.02;;;6.75;;
82304;SDS011;71914;47.382;8.168;2023-08-21T09:02:42;9.32;;;8.00;;
82304;SDS011;71914;47.382;8.168;2023-08-21T09:05:09;10.60;;;7.68;;
82304;SDS011;71914;47.382;8.168;2023-08-21T09:07:35;11.80;;;7.47;;
82304;SDS011;71914;47.382;8.168;2023-08-21T09:10:01;12.70;;;7.80;;
82304;SDS011;71914;47.382;8.168;2023-08-21T09:12:31;10.52;;;7.70;;
82304;SDS011;71914;47.382;8.168;2023-08-21T09:14:57;10.15;;;7.45;;
82304;SDS011;71914;47.382;8.168;2023-08-21T09:17:32;11.02;;;7.60;;
82304;SDS011;71914;47.382;8.168;2023-08-21T09:20:03;8.18;;;7.07;;
82304;SDS011;71914;47.382;8.168;2023-08-21T09:22:30;10.23;;;7.93;;
82304;SDS011;71914;47.382;8.168;2023-08-21T09:24:59;10.52;;;7.43;;
82304;SDS011;71914;47.382;8.168;2023-08-21T09:27:26;13.02;;;7.50;;
82304;SDS011;71914;47.382;8.168;2023-08-21T09:29:51;10.18;;;7.55;;
82304;SDS011;71914;47.382;8.168;2023-08-21T09:32:18;9.90;;;7.68;;
82304;SDS011;71914;47.382;8.168;2023-08-21T09:34:43;10.68;;;8.27;;
82304;SDS011;71914;47.382;8.168;2023-08-21T09:37:10;11.93;;;7.90;;
82304;SDS011;71914;47.382;8.168;2023-08-21T09:39:37;11.88;;;8.38;;
82304;SDS011;71914;47.382;8.168;2023-08-21T09:42:04;10.32;;;7.75;;
82304;SDS011;71914;47.382;8.168;2023-08-21T09:44:34;12.85;;;8.57;;
82304;SDS011;71914;47.382;8.168;2023-08-21T09:47:00;8.55;;;7.75;;
82304;SDS011;71914;47.382;8.168;2023-08-21T09:49:26;9.68;;;7.07;;
82304;SDS011;71914;47.382;8.168;2023-08-21T09:51:52;12.38;;;8.15;;
82304;SDS011;71914;47.382;8.168;2023-08-21T09:54:19;10.98;;;7.63;;
82304;SDS011;71914;47.382;8.168;2023-08-21T09:56:47;10.30;;;7.63;;
82304;SDS011;71914;47.382;8.168;2023-08-21T09:59:15;10.77;;;7.03;;
82304;SDS011;71914;47.382;8.168;2023-08-21T10:01:42;11.02;;;7.60;;
82304;SDS011;71914;47.382;8.168;2023-08-21T10:04:10;17.55;;;15.95;;
82304;SDS011;71914;47.382;8.168;2023-08-21T10:06:37;11.73;;;7.97;;
82304;SDS011;71914;47.382;8.168;2023-08-21T10:09:04;12.88;;;7.78;;
82304;SDS011;71914;47.382;8.168;2023-08-21T10:11:30;12.20;;;7.97;;
82304;SDS011;71914;47.382;8.168;2023-08-21T10:13:57;11.10;;;8.05;;
82304;SDS011;71914;47.382;8.168;2023-08-21T10:16:23;8.70;;;7.68;;
82304;SDS011;71914;47.382;8.168;2023-08-21T10:18:49;9.00;;;7.85;;
82304;SDS011;71914;47.382;8.168;2023-08-21T10:21:15;8.95;;;8.05;;
82304;SDS011;71914;47.382;8.168;2023-08-21T10:23:44;10.40;;;8.52;;
82304;SDS011;71914;47.382;8.168;2023-08-21T10:26:11;9.05;;;8.15;;
82304;SDS011;71914;47.382;8.168;2023-08-21T10:28:47;10.90;;;9.30;;
82304;SDS011;71914;47.382;8.168;2023-08-21T10:34:01;11.73;;;8.88;;
82304;SDS011;71914;47.382;8.168;2023-08-21T10:36:42;9.57;;;8.15;;
82304;SDS011;71914;47.382;8.168;2023-08-21T10:39:34;13.82;;;8.82;;
82304;SDS011;71914;47.382;8.168;2023-08-21T10:42:05;9.18;;;7.47;;
82304;SDS011;71914;47.382;8.168;2023-08-21T10:44:33;9.18;;;7.75;;
82304;SDS011;71914;47.382;8.168;2023-08-21T10:47:15;9.98;;;8.02;;
82304;SDS011;71914;47.382;8.168;2023-08-21T10:49:42;9.25;;;6.95;;
82304;SDS011;71914;47.382;8.168;2023-08-21T10:52:08;8.10;;;7.28;;
82304;SDS011;71914;47.382;8.168;2023-08-21T10:54:42;8.38;;;7.57;;
82304;SDS011;71914;47.382;8.168;2023-08-21T10:57:08;10.95;;;8.60;;
82304;SDS011;71914;47.382;8.168;2023-08-21T10:59:37;9.50;;;7.72;;
82304;SDS011;71914;47.382;8.168;2023-08-21T11:02:02;9.95;;;8.93;;
82304;SDS011;71914;47.382;8.168;2023-08-21T11:04:29;11.88;;;7.30;;
82304;SDS011;71914;47.382;8.168;2023-08-21T11:07:05;14.93;;;8.30;;
82304;SDS011;71914;47.382;8.168;2023-08-21T11:09:31;7.45;;;6.75;;
82304;SDS011;71914;47.382;8.168;2023-08-21T11:11:56;11.02;;;7.38;;
82304;SDS011;71914;47.382;8.168;2023-08-21T11:14:25;10.52;;;8.20;;
82304;SDS011;71914;47.382;8.168;2023-08-21T11:16:50;9.15;;;7.45;;
82304;SDS011;71914;47.382;8.168;2023-08-21T11:19:16;8.70;;;6.95;;
82304;SDS011;71914;47.382;8.168;2023-08-21T11:21:43;8.60;;;7.32;;
82304;SDS011;71914;47.382;8.168;2023-08-21T11:24:15;8.80;;;7.88;;
82304;SDS011;71914;47.382;8.168;2023-08-21T11:26:41;10.68;;;7.68;;
82304;SDS011;71914;47.382;8.168;2023-08-21T11:29:07;9.20;;;7.60;;
82304;SDS011;71914;47.382;8.168;2023-08-21T11:31:33;9.93;;;7.28;;
82304;SDS011;71914;47.382;8.168;2023-08-21T11:33:58;9.88;;;7.18;;
82304;SDS011;71914;47.382;8.168;2023-08-21T11:36:24;9.52;;;7.95;;
82304;SDS011;71914;47.382;8.168;2023-08-21T11:39:01;9.05;;;7.10;;
82304;SDS011;71914;47.382;8.168;2023-08-21T11:41:28;10.20;;;7.60;;
82304;SDS011;71914;47.382;8.168;2023-08-21T11:43:57;11.65;;;7.88;;
82304;SDS011;71914;47.382;8.168;2023-08-21T11:46:27;7.95;;;7.13;;
82304;SDS011;71914;47.382;8.168;2023-08-21T11:48:53;8.90;;;8.00;;
82304;SDS011;71914;47.382;8.168;2023-08-21T11:51:18;8.52;;;7.25;;
82304;SDS011;71914;47.382;8.168;2023-08-21T11:53:44;7.95;;;7.07;;
82304;SDS011;71914;47.382;8.168;2023-08-21T11:56:15;8.27;;;7.07;;
82304;SDS011;71914;47.382;8.168;2023-08-21T11:58:43;9.55;;;7.05;;
82304;SDS011;71914;47.382;8.168;2023-08-21T12:01:16;7.20;;;6.50;;
82304;SDS011;71914;47.382;8.168;2023-08-21T12:03:41;9.15;;;7.20;;
82304;SDS011;71914;47.382;8.168;2023-08-21T12:06:09;7.38;;;6.65;;
82304;SDS011;71914;47.382;8.168;2023-08-21T12:08:36;7.63;;;6.70;;
82304;SDS011;71914;47.382;8.168;2023-08-21T12:11:03;7.47;;;6.78;;
82304;SDS011;71914;47.382;8.168;2023-08-21T12:13:30;12.48;;;6.95;;
82304;SDS011;71914;47.382;8.168;2023-08-21T12:15:56;10.52;;;7.57;;
82304;SDS011;71914;47.382;8.168;2023-08-21T12:18:22;10.07;;;7.60;;
82304;SDS011;71914;47.382;8.168;2023-08-21T12:20:48;9.13;;;6.38;;
82304;SDS011;71914;47.382;8.168;2023-08-21T12:23:13;8.23;;;6.95;;
82304;SDS011;71914;47.382;8.168;2023-08-21T12:25:39;9.15;;;6.65;;
82304;SDS011;71914;47.382;8.168;2023-08-21T12:28:05;8.45;;;6.55;;
82304;SDS011;71914;47.382;8.168;2023-08-21T12:30:32;9.18;;;6.25;;
82304;SDS011;71914;47.382;8.168;2023-08-21T12:32:58;8.55;;;6.20;;
82304;SDS011;71914;47.382;8.168;2023-08-21T12:35:23;12.48;;;6.72;;
82304;SDS011;71914;47.382;8.168;2023-08-21T12:37:49;7.15;;;6.38;;
82304;SDS011;71914;47.382;8.168;2023-08-21T12:40:15;10.32;;;6.72;;
82304;SDS011;71914;47.382;8.168;2023-08-21T12:42:41;12.10;;;6.60;;
82304;SDS011;71914;47.382;8.168;2023-08-21T12:45:10;8.07;;;6.50;;
82304;SDS011;71914;47.382;8.168;2023-08-21T12:47:37;10.07;;;6.45;;
82304;SDS011;71914;47.382;8.168;2023-08-21T12:50:03;18.70;;;7.97;;
82304;SDS011;71914;47.382;8.168;2023-08-21T12:52:29;8.10;;;5.95;;
82304;SDS011;71914;47.382;8.168;2023-08-21T12:54:55;13.07;;;7.70;;
82304;SDS011;71914;47.382;8.168;2023-08-21T12:57:20;8.23;;;6.53;;
82304;SDS011;71914;47.382;8.168;2023-08-21T12:59:46;9.15;;;7.05;;
82304;SDS011;71914;47.382;8.168;2023-08-21T13:02:12;7.28;;;5.85;;
82304;SDS011;71914;47.382;8.168;2023-08-21T13:04:39;9.57;;;6.15;;
82304;SDS011;71914;47.382;8.168;2023-08-21T13:07:04;9.82;;;5.97;;
82304;SDS011;71914;47.382;8.168;2023-08-21T13:09:30;8.68;;;5.90;;
82304;SDS011;71914;47.382;8.168;2023-08-21T13:11:56;10.80;;;5.68;;
82304;SDS011;71914;47.382;8.168;2023-08-21T13:14:22;6.35;;;5.15;;
82304;SDS011;71914;47.382;8.168;2023-08-21T13:16:48;8.43;;;5.85;;
82304;SDS011;71914;47.382;8.168;2023-08-21T13:19:14;8.70;;;6.03;;
82304;SDS011;71914;47.382;8.168;2023-08-21T13:21:41;9.10;;;6.38;;
82304;SDS011;71914;47.382;8.168;2023-08-21T13:24:06;6.50;;;5.88;;
82304;SDS011;71914;47.382;8.168;2023-08-21T13:26:32;7.93;;;5.43;;
82304;SDS011;71914;47.382;8.168;2023-08-21T13:28:57;6.47;;;4.90;;
82304;SDS011;71914;47.382;8.168;2023-08-21T13:31:24;7.10;;;5.25;;
82304;SDS011;71914;47.382;8.168;2023-08-21T13:33:50;10.38;;;5.38;;
82304;SDS011;71914;47.382;8.168;2023-08-21T13:36:16;6.45;;;5.55;;
82304;SDS011;71914;47.382;8.168;2023-08-21T13:38:45;9.32;;;5.60;;
82304;SDS011;71914;47.382;8.168;2023-08-21T13:41:10;10.88;;;5.28;;
82304;SDS011;71914;47.382;8.168;2023-08-21T13:43:36;8.10;;;5.60;;
82304;SDS011;71914;47.382;8.168;2023-08-21T13:46:02;9.02;;;5.95;;
82304;SDS011;71914;47.382;8.168;2023-08-21T13:48:31;9.48;;;6.13;;
82304;SDS011;71914;47.382;8.168;2023-08-21T13:50:57;6.30;;;5.68;;
82304;SDS011;71914;47.382;8.168;2023-08-21T13:53:22;9.30;;;5.97;;
82304;SDS011;71914;47.382;8.168;2023-08-21T13:55:50;11.30;;;6.18;;
82304;SDS011;71914;47.382;8.168;2023-08-21T13:58:16;9.50;;;5.82;;
82304;SDS011;71914;47.382;8.168;2023-08-21T14:00:42;7.78;;;6.35;;
82304;SDS011;71914;47.382;8.168;2023-08-21T14:03:07;8.35;;;6.95;;
82304;SDS011;71914;47.382;8.168;2023-08-21T14:05:33;8.68;;;6.00;;
82304;SDS011;71914;47.382;8.168;2023-08-21T14:07:58;11.30;;;7.55;;
82304;SDS011;71914;47.382;8.168;2023-08-21T14:10:24;8.90;;;5.78;;
82304;SDS011;71914;47.382;8.168;2023-08-21T14:12:52;9.80;;;5.95;;
82304;SDS011;71914;47.382;8.168;2023-08-21T14:15:17;6.05;;;5.30;;
82304;SDS011;71914;47.382;8.168;2023-08-21T14:17:43;7.75;;;5.82;;
82304;SDS011;71914;47.382;8.168;2023-08-21T14:20:09;9.07;;;6.00;;
82304;SDS011;71914;47.382;8.168;2023-08-21T14:22:36;10.95;;;5.72;;
82304;SDS011;71914;47.382;8.168;2023-08-21T14:25:01;7.00;;;5.63;;
82304;SDS011;71914;47.382;8.168;2023-08-21T14:27:30;6.30;;;5.70;;
82304;SDS011;71914;47.382;8.168;2023-08-21T14:29:58;7.82;;;5.72;;
82304;SDS011;71914;47.382;8.168;2023-08-21T14:32:23;9.75;;;6.38;;
82304;SDS011;71914;47.382;8.168;2023-08-21T14:34:49;9.02;;;5.82;;
82304;SDS011;71914;47.382;8.168;2023-08-21T14:37:14;13.57;;;6.75;;
82304;SDS011;71914;47.382;8.168;2023-08-21T14:39:41;9.02;;;6.40;;
82304;SDS011;71914;47.382;8.168;2023-08-21T14:42:07;9.50;;;5.85;;
82304;SDS011;71914;47.382;8.168;2023-08-21T14:44:32;9.77;;;5.32;;
82304;SDS011;71914;47.382;8.168;2023-08-21T14:46:59;10.85;;;6.35;;
82304;SDS011;71914;47.382;8.168;2023-08-21T14:49:25;10.48;;;6.00;;
82304;SDS011;71914;47.382;8.168;2023-08-21T14:51:50;8.73;;;6.00;;
82304;SDS011;71914;47.382;8.168;2023-08-21T14:54:17;7.35;;;5.68;;
82304;SDS011;71914;47.382;8.168;2023-08-21T14:56:42;9.07;;;5.43;;
82304;SDS011;71914;47.382;8.168;2023-08-21T14:59:08;8.88;;;6.10;;
82304;SDS011;71914;47.382;8.168;2023-08-21T15:01:37;8.25;;;6.72;;
82304;SDS011;71914;47.382;8.168;2023-08-21T15:04:05;7.88;;;5.13;;
82304;SDS011;71914;47.382;8.168;2023-08-21T15:06:30;6.55;;;5.47;;
82304;SDS011;71914;47.382;8.168;2023-08-21T15:08:56;9.70;;;6.10;;
82304;SDS011;71914;47.382;8.168;2023-08-21T15:11:21;7.78;;;5.43;;
82304;SDS011;71914;47.382;8.168;2023-08-21T15:13:47;6.35;;;5.35;;
82304;SDS011;71914;47.382;8.168;2023-08-21T15:16:13;7.50;;;5.13;;
82304;SDS011;71914;47.382;8.168;2023-08-21T15:18:38;11.90;;;5.95;;
82304;SDS011;71914;47.382;8.168;2023-08-21T15:21:05;9.35;;;5.28;;
82304;SDS011;71914;47.382;8.168;2023-08-21T15:23:30;8.73;;;5.53;;
82304;SDS011;71914;47.382;8.168;2023-08-21T15:25:56;9.07;;;6.05;;
82304;SDS011;71914;47.382;8.168;2023-08-21T15:28:22;7.10;;;5.78;;
82304;SDS011;71914;47.382;8.168;2023-08-21T15:30:47;7.85;;;4.68;;
82304;SDS011;71914;47.382;8.168;2023-08-21T15:33:13;6.82;;;5.47;;